Time;durP1;ratioP1;P1;durP2;ratioP2;P2;SDS_P1;SDS_P2;PMS_P1;PMS_P2;Temp;Humidity;BMP_temperature;BMP_pressure;BME280_temperature;BME280_humidity;BME280_pressure;Samples;Min_cycle;Max_cycle;Signal;HPM_P1;HPM_P2
2021/09/23 00:00:46;;;;;;;4.97;3.70;;;12.70;99.90;;;;;;4994012;28;20223;-74
2021/09/23 00:03:20;;;;;;;7.50;4.90;;;12.70;99.90;;;;;;4994126;28;20209;-72
2021/09/23 00:05:47;;;;;;;5.60;4.18;;;12.70;99.90;;;;;;4993969;28;20228;-73
2021/09/23 00:08:13;;;;;;;6.60;4.35;;;12.80;99.90;;;;;;4994530;28;20293;-72
2021/09/23 00:10:42;;;;;;;5.35;4.80;;;12.80;99.90;;;;;;4993676;28;20205;-73
2021/09/23 00:13:10;;;;;;;7.68;5.10;;;12.80;99.90;;;;;;4993717;28;20575;-73
2021/09/23 00:15:39;;;;;;;6.88;4.90;;;12.60;99.90;;;;;;4994143;28;20209;-73
2021/09/23 00:18:09;;;;;;;8.43;5.00;;;12.60;99.90;;;;;;4993763;28;20208;-73
2021/09/23 00:20:38;;;;;;;5.90;4.90;;;12.70;99.90;;;;;;4993435;28;20301;-72
2021/09/23 00:23:06;;;;;;;6.40;4.53;;;12.60;99.90;;;;;;4993805;28;20210;-74
2021/09/23 00:25:33;;;;;;;5.13;4.25;;;12.70;99.90;;;;;;4993955;28;20257;-73
2021/09/23 00:28:00;;;;;;;6.18;4.65;;;12.70;99.90;;;;;;4993768;28;20210;-73
2021/09/23 00:30:28;;;;;;;7.30;4.82;;;12.80;99.90;;;;;;4993652;28;20300;-73
2021/09/23 00:32:56;;;;;;;7.43;5.47;;;12.70;99.90;;;;;;4993534;28;20221;-73
2021/09/23 00:35:24;;;;;;;5.57;4.60;;;12.50;99.90;;;;;;4993848;28;20534;-73
2021/09/23 00:37:51;;;;;;;10.63;5.07;;;12.40;99.90;;;;;;4993541;28;20216;-73
2021/09/23 00:40:18;;;;;;;6.60;4.78;;;12.30;99.90;;;;;;4993757;28;20213;-73
2021/09/23 00:42:48;;;;;;;6.60;5.40;;;12.30;99.90;;;;;;4993500;28;20296;-72
2021/09/23 00:45:16;;;;;;;6.43;5.15;;;12.30;99.90;;;;;;4993567;28;20599;-73
2021/09/23 00:47:43;;;;;;;6.75;5.00;;;12.30;99.90;;;;;;4993109;28;20215;-73
2021/09/23 00:50:13;;;;;;;7.15;4.70;;;12.40;99.90;;;;;;4993524;28;20253;-73
2021/09/23 00:52:41;;;;;;;6.55;5.30;;;12.50;99.90;;;;;;4993200;28;20201;-73
2021/09/23 00:55:10;;;;;;;6.32;4.60;;;12.50;99.90;;;;;;4994157;28;20312;-75
2021/09/23 00:57:37;;;;;;;5.97;4.78;;;12.50;99.90;;;;;;4993612;28;20213;-73
2021/09/23 01:00:07;;;;;;;6.10;4.80;;;12.40;99.90;;;;;;4993246;28;20212;-72
2021/09/23 01:02:34;;;;;;;5.13;4.30;;;12.40;99.90;;;;;;4992955;28;20201;-74
2021/09/23 01:05:01;;;;;;;5.88;4.40;;;12.40;99.90;;;;;;4992669;28;20712;-71
2021/09/23 01:07:29;;;;;;;6.63;4.85;;;12.40;99.90;;;;;;4992898;28;20209;-73
2021/09/23 01:09:57;;;;;;;5.35;4.25;;;12.40;99.90;;;;;;4992682;28;20764;-73
2021/09/23 01:12:26;;;;;;;5.18;4.32;;;12.50;99.90;;;;;;4992531;28;20209;-73
2021/09/23 01:14:53;;;;;;;4.80;4.30;;;12.40;99.90;;;;;;4992664;28;20225;-74
2021/09/23 01:17:20;;;;;;;6.25;4.78;;;12.40;99.90;;;;;;4992928;28;20247;-73
2021/09/23 01:19:47;;;;;;;4.93;4.40;;;12.30;99.90;;;;;;4992982;28;20205;-73
2021/09/23 01:22:17;;;;;;;5.82;4.90;;;12.20;99.90;;;;;;4992585;28;20671;-72
2021/09/23 01:24:44;;;;;;;5.97;4.55;;;12.30;99.90;;;;;;4992430;28;20229;-73
2021/09/23 01:27:12;;;;;;;4.45;3.60;;;12.30;99.90;;;;;;4992557;28;20631;-74
2021/09/23 01:29:40;;;;;;;4.88;4.00;;;12.30;99.90;;;;;;4995426;28;20208;-74
2021/09/23 01:32:09;;;;;;;6.07;4.25;;;12.30;99.90;;;;;;4996455;28;20215;-74
2021/09/23 01:34:37;;;;;;;4.72;4.03;;;12.30;99.90;;;;;;4996291;28;20304;-74
2021/09/23 01:37:04;;;;;;;5.40;4.30;;;12.40;99.90;;;;;;4997032;28;20788;-73
2021/09/23 01:39:33;;;;;;;7.63;4.10;;;12.40;99.90;;;;;;4997122;28;20208;-74
2021/09/23 01:42:00;;;;;;;5.38;4.03;;;12.20;99.90;;;;;;4997892;28;20243;-75
2021/09/23 01:44:27;;;;;;;5.70;4.20;;;12.00;99.90;;;;;;4998055;28;20316;-74
2021/09/23 01:46:54;;;;;;;4.93;4.25;;;11.80;99.90;;;;;;4997987;28;20296;-74
2021/09/23 01:49:21;;;;;;;7.78;4.78;;;11.70;99.90;;;;;;4997796;28;20667;-74
2021/09/23 01:51:48;;;;;;;7.35;5.05;;;11.80;99.90;;;;;;4997639;28;20212;-74
2021/09/23 01:54:15;;;;;;;5.45;4.47;;;11.80;99.90;;;;;;4997776;28;20225;-74
2021/09/23 01:56:44;;;;;;;6.70;5.57;;;11.80;99.90;;;;;;4997888;28;20205;-74
2021/09/23 01:59:10;;;;;;;5.90;5.20;;;11.90;99.90;;;;;;4997804;28;20301;-74
2021/09/23 02:01:37;;;;;;;6.18;4.80;;;12.00;99.90;;;;;;4997465;28;20296;-74
2021/09/23 02:04:04;;;;;;;6.20;4.60;;;12.00;99.90;;;;;;4997445;28;20225;-74
2021/09/23 02:06:31;;;;;;;9.48;4.80;;;12.00;99.90;;;;;;4997547;28;20227;-74
2021/09/23 02:08:58;;;;;;;5.60;4.40;;;12.00;99.90;;;;;;4997655;28;20630;-74
2021/09/23 02:11:25;;;;;;;7.03;5.25;;;12.00;99.90;;;;;;4997345;28;20216;-74
2021/09/23 02:13:53;;;;;;;5.80;4.80;;;12.00;99.90;;;;;;4997391;28;20225;-74
2021/09/23 02:16:20;;;;;;;4.55;4.15;;;12.00;99.90;;;;;;4997446;28;20575;-74
2021/09/23 02:18:47;;;;;;;9.43;5.60;;;11.80;99.90;;;;;;4997358;28;20231;-74
2021/09/23 02:21:14;;;;;;;5.70;5.00;;;11.60;99.90;;;;;;4997050;28;20296;-75
2021/09/23 02:23:41;;;;;;;5.45;4.40;;;11.70;99.90;;;;;;4996951;28;20233;-75
2021/09/23 02:26:08;;;;;;;6.30;4.35;;;11.70;99.90;;;;;;4997882;28;20590;-74
2021/09/23 02:28:36;;;;;;;5.00;3.85;;;11.70;99.90;;;;;;4998192;28;20205;-74
2021/09/23 02:31:05;;;;;;;6.47;4.85;;;11.60;99.90;;;;;;4997133;28;20627;-74
2021/09/23 02:33:32;;;;;;;5.32;4.18;;;11.60;99.90;;;;;;4996688;28;20238;-74
2021/09/23 02:35:59;;;;;;;6.60;4.97;;;11.50;99.90;;;;;;4997073;28;20201;-74
2021/09/23 02:38:27;;;;;;;5.97;4.65;;;11.60;99.90;;;;;;4997086;28;20209;-74
2021/09/23 02:40:55;;;;;;;5.55;4.47;;;11.60;99.90;;;;;;4996885;28;20212;-74
2021/09/23 02:43:22;;;;;;;6.05;4.60;;;11.70;99.90;;;;;;4996762;28;20240;-74
2021/09/23 02:45:49;;;;;;;5.30;4.80;;;11.80;99.90;;;;;;4996595;28;20695;-74
2021/09/23 02:48:17;;;;;;;4.88;3.95;;;11.70;99.90;;;;;;4996772;28;20643;-74
2021/09/23 02:50:44;;;;;;;4.93;4.50;;;11.70;99.90;;;;;;4996818;28;20292;-74
2021/09/23 02:53:11;;;;;;;4.68;3.83;;;11.80;99.90;;;;;;4996487;28;20207;-74
2021/09/23 02:55:38;;;;;;;6.72;4.30;;;11.70;99.90;;;;;;4996715;28;20208;-74
2021/09/23 02:58:05;;;;;;;6.07;3.75;;;11.70;99.90;;;;;;4996644;28;20296;-74
2021/09/23 03:00:32;;;;;;;4.78;4.22;;;11.70;99.90;;;;;;4996513;28;20301;-74
2021/09/23 03:02:59;;;;;;;5.97;4.03;;;11.80;99.90;;;;;;4996216;28;20211;-75
2021/09/23 03:05:27;;;;;;;5.85;4.18;;;11.80;99.90;;;;;;4996414;28;20240;-74
2021/09/23 03:07:54;;;;;;;7.38;4.57;;;11.80;99.90;;;;;;4996508;28;20304;-74
2021/09/23 03:10:20;;;;;;;5.57;4.40;;;11.60;99.90;;;;;;4996319;28;20205;-74
2021/09/23 03:12:47;;;;;;;6.85;4.97;;;11.50;99.90;;;;;;4996266;28;20206;-74
2021/09/23 03:15:14;;;;;;;5.50;4.03;;;11.50;99.90;;;;;;4996359;28;20581;-74
2021/09/23 03:17:41;;;;;;;6.38;4.10;;;11.50;99.90;;;;;;4996277;28;20297;-74
2021/09/23 03:20:09;;;;;;;5.57;4.30;;;11.50;99.90;;;;;;4996384;28;20699;-74
2021/09/23 03:22:37;;;;;;;6.10;4.30;;;11.40;99.90;;;;;;4995832;28;20256;-74
2021/09/23 03:25:05;;;;;;;6.10;4.18;;;11.40;99.90;;;;;;4996093;28;20229;-74
2021/09/23 03:27:31;;;;;;;6.35;4.10;;;11.40;99.90;;;;;;4996057;28;20212;-74
2021/09/23 03:29:58;;;;;;;6.35;4.75;;;11.50;99.90;;;;;;4995941;28;20541;-74
2021/09/23 03:32:25;;;;;;;6.65;5.10;;;11.50;99.90;;;;;;4995437;28;20214;-74
2021/09/23 03:34:52;;;;;;;5.10;4.13;;;11.60;99.90;;;;;;4996055;28;20225;-74
2021/09/23 03:37:19;;;;;;;4.55;4.15;;;11.50;99.90;;;;;;4996500;28;20572;-74
2021/09/23 03:39:47;;;;;;;6.47;4.50;;;11.40;99.90;;;;;;4995859;28;20300;-74
2021/09/23 03:42:14;;;;;;;6.72;4.80;;;11.30;99.90;;;;;;4995453;28;20731;-74
2021/09/23 03:44:40;;;;;;;8.10;4.85;;;11.30;99.90;;;;;;4995495;28;20225;-74
2021/09/23 03:47:08;;;;;;;6.55;4.90;;;11.40;99.90;;;;;;4995481;28;20214;-74
2021/09/23 03:49:34;;;;;;;5.15;4.20;;;11.30;99.90;;;;;;4995809;28;20208;-74
2021/09/23 03:52:01;;;;;;;5.32;4.28;;;11.10;99.90;;;;;;4995063;28;20209;-74
2021/09/23 03:54:28;;;;;;;7.55;5.35;;;11.00;99.90;;;;;;4995833;28;20613;-74
2021/09/23 03:56:56;;;;;;;8.30;5.10;;;10.80;99.90;;;;;;4995441;28;20664;-74
2021/09/23 03:59:23;;;;;;;5.47;3.85;;;10.80;99.90;;;;;;4995581;28;20284;-74
2021/09/23 04:01:50;;;;;;;6.07;4.68;;;10.90;99.90;;;;;;4995497;28;20612;-74
2021/09/23 04:04:18;;;;;;;7.68;5.25;;;11.10;99.90;;;;;;4995715;28;20229;-74
2021/09/23 04:06:45;;;;;;;5.60;3.95;;;11.00;99.90;;;;;;4995845;28;20248;-74
2021/09/23 04:09:12;;;;;;;6.22;4.70;;;10.90;99.90;;;;;;4995684;28;20209;-74
2021/09/23 04:11:41;;;;;;;7.68;5.43;;;11.00;99.90;;;;;;4995846;28;20201;-74
2021/09/23 04:14:09;;;;;;;6.38;4.65;;;11.00;99.90;;;;;;4995528;28;20603;-74
2021/09/23 04:16:36;;;;;;;4.90;3.30;;;11.00;99.90;;;;;;4995117;28;20208;-74
2021/09/23 04:19:04;;;;;;;5.85;4.50;;;11.10;99.90;;;;;;4995164;28;20206;-74
2021/09/23 04:21:31;;;;;;;8.90;4.63;;;11.10;99.90;;;;;;4994826;28;20209;-73
2021/09/23 04:23:58;;;;;;;6.75;4.60;;;11.10;99.90;;;;;;4994945;28;20610;-74
2021/09/23 04:26:25;;;;;;;8.65;5.22;;;11.10;99.90;;;;;;4994913;28;20225;-74
2021/09/23 04:28:52;;;;;;;7.05;4.72;;;11.10;99.90;;;;;;4995012;28;20227;-74
2021/09/23 04:31:20;;;;;;;7.85;5.38;;;11.10;99.90;;;;;;4994812;28;20288;-74
2021/09/23 04:33:47;;;;;;;7.65;4.65;;;11.00;99.90;;;;;;4994567;28;20240;-74
2021/09/23 04:36:14;;;;;;;6.68;5.43;;;11.10;99.90;;;;;;4994968;28;20197;-74
2021/09/23 04:38:41;;;;;;;10.70;4.55;;;11.10;99.90;;;;;;4994907;28;20296;-74
2021/09/23 04:41:11;;;;;;;8.85;5.70;;;11.10;99.90;;;;;;4994662;28;20205;-75
2021/09/23 04:43:38;;;;;;;6.43;5.20;;;11.10;99.90;;;;;;4994637;28;20228;-75
2021/09/23 04:46:05;;;;;;;6.80;5.65;;;11.10;99.90;;;;;;4994786;28;20587;-73
2021/09/23 04:48:33;;;;;;;9.10;5.63;;;11.10;99.90;;;;;;4994845;28;20296;-74
2021/09/23 04:51:01;;;;;;;9.25;5.70;;;11.00;99.90;;;;;;4995009;28;20296;-74
2021/09/23 04:53:28;;;;;;;5.35;4.68;;;10.80;99.90;;;;;;4994488;28;20583;-74
2021/09/23 04:55:55;;;;;;;9.77;6.25;;;10.90;99.90;;;;;;4994553;28;20296;-74
2021/09/23 04:58:22;;;;;;;9.27;6.15;;;10.90;99.90;;;;;;4994641;28;20565;-74
2021/09/23 05:00:48;;;;;;;6.80;4.80;;;11.10;99.90;;;;;;4995010;28;20296;-74
2021/09/23 05:03:15;;;;;;;7.22;5.30;;;11.10;99.90;;;;;;4993851;28;20679;-74
2021/09/23 05:05:44;;;;;;;7.97;5.60;;;11.00;99.90;;;;;;4995187;28;20743;-74
2021/09/23 05:08:11;;;;;;;9.50;5.75;;;10.90;99.90;;;;;;4994648;28;20221;-74
2021/09/23 05:10:38;;;;;;;8.00;5.57;;;11.00;99.90;;;;;;4994651;28;20236;-74
2021/09/23 05:13:05;;;;;;;7.47;5.22;;;11.00;99.90;;;;;;4994687;28;20295;-74
2021/09/23 05:15:32;;;;;;;7.50;5.38;;;10.90;99.90;;;;;;4994542;28;20218;-74
2021/09/23 05:17:59;;;;;;;7.35;5.00;;;10.90;99.90;;;;;;4994401;28;20296;-74
2021/09/23 05:20:26;;;;;;;6.28;5.10;;;11.00;99.90;;;;;;4994047;28;20205;-74
2021/09/23 05:22:54;;;;;;;6.45;4.95;;;11.00;99.90;;;;;;4994112;28;20205;-74
2021/09/23 05:25:22;;;;;;;6.57;5.75;;;11.10;99.90;;;;;;4994424;28;20335;-74
2021/09/23 05:27:50;;;;;;;7.10;5.68;;;11.10;99.90;;;;;;4994568;28;20209;-74
2021/09/23 05:30:17;;;;;;;7.28;5.80;;;11.00;99.90;;;;;;4994539;28;20217;-74
2021/09/23 05:32:44;;;;;;;7.60;5.40;;;10.90;99.90;;;;;;4993713;28;20304;-74
2021/09/23 05:35:11;;;;;;;10.80;6.55;;;10.80;99.90;;;;;;4994347;28;20257;-74
2021/09/23 05:37:38;;;;;;;8.65;6.45;;;10.90;99.90;;;;;;4994246;28;20675;-74
2021/09/23 05:40:08;;;;;;;9.43;5.95;;;10.90;99.90;;;;;;4993859;28;20216;-73
2021/09/23 05:42:35;;;;;;;8.23;6.30;;;10.80;99.90;;;;;;4993908;28;20296;-74
2021/09/23 05:45:03;;;;;;;10.85;6.70;;;10.70;99.90;;;;;;4993768;28;20316;-74
2021/09/23 05:47:30;;;;;;;9.93;6.20;;;10.70;99.90;;;;;;4994022;28;20236;-74
2021/09/23 05:49:57;;;;;;;8.10;5.80;;;10.70;99.90;;;;;;4994018;28;20644;-74
2021/09/23 05:52:24;;;;;;;7.22;5.20;;;10.80;99.90;;;;;;4993938;28;20211;-74
2021/09/23 05:54:51;;;;;;;8.45;6.35;;;10.80;99.90;;;;;;4994037;28;20229;-74
2021/09/23 05:57:23;;;;;;;9.90;6.30;;;10.70;99.90;;;;;;4993891;28;20236;-74
2021/09/23 05:59:50;;;;;;;8.43;6.07;;;10.60;99.90;;;;;;4993976;28;20205;-74
2021/09/23 06:02:16;;;;;;;9.15;5.95;;;10.50;99.90;;;;;;4993532;28;20690;-74
2021/09/23 06:04:43;;;;;;;10.70;7.40;;;10.50;99.90;;;;;;4993975;28;20259;-74
2021/09/23 06:07:10;;;;;;;7.78;6.25;;;10.70;99.90;;;;;;4994047;28;20233;-74
2021/09/23 06:09:37;;;;;;;10.48;6.35;;;10.80;99.90;;;;;;4993817;28;20304;-74
2021/09/23 06:12:05;;;;;;;11.02;6.68;;;10.80;99.90;;;;;;4993566;28;20296;-74
2021/09/23 06:14:33;;;;;;;11.88;6.57;;;10.80;99.90;;;;;;4994438;28;20644;-74
2021/09/23 06:17:00;;;;;;;11.80;7.63;;;10.70;99.90;;;;;;4997599;28;20284;-74
2021/09/23 06:19:26;;;;;;;8.93;7.00;;;10.80;99.90;;;;;;4997517;28;20206;-74
2021/09/23 06:21:53;;;;;;;9.25;7.38;;;10.80;99.90;;;;;;4997478;28;20556;-74
2021/09/23 06:24:20;;;;;;;9.50;6.45;;;10.90;99.90;;;;;;4997172;28;20317;-74
2021/09/23 06:26:47;;;;;;;10.75;7.22;;;11.00;99.90;;;;;;4997362;28;20590;-74
2021/09/23 06:29:14;;;;;;;11.02;7.60;;;11.00;99.90;;;;;;4997290;28;20300;-74
2021/09/23 06:31:42;;;;;;;10.48;7.32;;;10.90;99.90;;;;;;4997047;28;20215;-74
2021/09/23 06:34:09;;;;;;;9.35;7.30;;;10.80;99.90;;;;;;4996908;28;20734;-74
2021/09/23 06:36:36;;;;;;;9.38;8.07;;;10.90;99.90;;;;;;4996858;28;20208;-74
2021/09/23 06:39:04;;;;;;;9.65;7.15;;;10.90;99.90;;;;;;4996876;28;20205;-74
2021/09/23 06:41:31;;;;;;;11.95;8.50;;;11.00;99.90;;;;;;4996734;28;20285;-74
2021/09/23 06:43:59;;;;;;;11.00;7.80;;;11.10;99.90;;;;;;4996949;28;20594;-74
2021/09/23 06:46:27;;;;;;;14.73;9.10;;;11.10;99.90;;;;;;4996884;28;20236;-74
2021/09/23 06:48:55;;;;;;;9.90;6.85;;;11.00;99.90;;;;;;4996805;28;20206;-74
2021/09/23 06:51:22;;;;;;;10.43;7.78;;;10.90;99.90;;;;;;4996735;28;20236;-74
2021/09/23 06:53:49;;;;;;;12.45;8.20;;;10.80;99.90;;;;;;4996701;28;20225;-74
2021/09/23 06:56:16;;;;;;;17.10;7.72;;;10.80;99.90;;;;;;4996475;28;20292;-74
2021/09/23 06:58:43;;;;;;;9.00;6.82;;;10.80;99.90;;;;;;4996722;28;20202;-74
2021/09/23 07:01:10;;;;;;;11.82;7.40;;;11.00;99.90;;;;;;4997015;28;20212;-74
2021/09/23 07:03:37;;;;;;;11.43;7.68;;;11.10;99.90;;;;;;4997119;28;20222;-74
2021/09/23 07:06:05;;;;;;;11.15;7.18;;;11.10;99.90;;;;;;4996935;28;20772;-74
2021/09/23 07:08:33;;;;;;;11.45;7.28;;;11.10;99.90;;;;;;4996827;28;20209;-74
2021/09/23 07:11:00;;;;;;;10.65;7.25;;;11.10;99.90;;;;;;4996285;28;20300;-75
2021/09/23 07:13:27;;;;;;;9.88;7.75;;;11.20;99.90;;;;;;4996249;28;20216;-74
2021/09/23 07:15:54;;;;;;;11.23;7.10;;;11.30;99.90;;;;;;4996760;28;20259;-74
2021/09/23 07:18:20;;;;;;;8.45;6.45;;;11.40;99.90;;;;;;4996492;28;20209;-74
2021/09/23 07:20:48;;;;;;;10.30;7.72;;;11.50;99.90;;;;;;4996247;28;20567;-74
2021/09/23 07:23:16;;;;;;;13.63;8.93;;;11.60;99.90;;;;;;4995966;28;20209;-75
2021/09/23 07:25:43;;;;;;;11.85;8.50;;;11.70;99.90;;;;;;4995624;28;20291;-74
2021/09/23 07:28:15;;;;;;;13.65;7.97;;;11.70;99.90;;;;;;4995763;28;20231;-74
2021/09/23 07:30:42;;;;;;;12.50;8.82;;;11.70;99.90;;;;;;4996022;28;20256;-74
2021/09/23 07:33:09;;;;;;;13.30;8.95;;;11.60;99.90;;;;;;4995540;28;20225;-74
2021/09/23 07:35:36;;;;;;;11.00;7.72;;;11.60;99.90;;;;;;4996276;28;20631;-74
2021/09/23 07:38:03;;;;;;;14.57;8.80;;;11.70;99.90;;;;;;4996190;28;20206;-74
2021/09/23 07:40:31;;;;;;;14.73;7.80;;;11.90;99.90;;;;;;4996269;28;20207;-75
2021/09/23 07:42:58;;;;;;;12.60;8.77;;;12.00;99.90;;;;;;4996104;28;20614;-75
2021/09/23 07:45:25;;;;;;;11.25;7.82;;;12.10;99.90;;;;;;4996372;28;20225;-75
2021/09/23 07:47:52;;;;;;;12.90;7.97;;;12.20;99.90;;;;;;4979768;28;20248;-73
2021/09/23 07:50:19;;;;;;;11.07;8.15;;;12.30;99.90;;;;;;4978885;28;20216;-73
2021/09/23 07:52:46;;;;;;;13.15;8.27;;;12.30;99.90;;;;;;4975292;28;20230;-73
2021/09/23 07:55:13;;;;;;;11.52;8.70;;;12.30;99.90;;;;;;4975349;28;20236;-73
2021/09/23 07:57:41;;;;;;;12.27;8.57;;;12.30;99.90;;;;;;4975928;28;20293;-73
2021/09/23 08:00:09;;;;;;;15.75;8.38;;;12.40;99.90;;;;;;4975894;28;20665;-73
2021/09/23 08:02:36;;;;;;;10.10;7.18;;;12.50;99.90;;;;;;4975822;28;20210;-73
2021/09/23 08:05:03;;;;;;;10.68;7.15;;;12.60;99.90;;;;;;4975427;28;20312;-73
2021/09/23 08:07:29;;;;;;;10.50;7.80;;;12.70;99.90;;;;;;4975436;28;20226;-73
2021/09/23 08:09:56;;;;;;;11.98;7.70;;;12.80;99.90;;;;;;4975498;28;20294;-73
2021/09/23 08:12:23;;;;;;;12.77;9.02;;;12.70;99.90;;;;;;4975164;28;20297;-73
2021/09/23 08:14:51;;;;;;;10.85;7.72;;;12.70;99.90;;;;;;4975264;28;20236;-74
2021/09/23 08:17:18;;;;;;;15.50;8.35;;;12.70;99.90;;;;;;4975858;28;20245;-74
2021/09/23 08:19:45;;;;;;;10.07;7.90;;;12.70;99.90;;;;;;4975527;28;20719;-74
2021/09/23 08:22:12;;;;;;;9.43;6.63;;;12.70;99.90;;;;;;4975410;28;20297;-75
2021/09/23 08:24:39;;;;;;;11.73;7.55;;;12.80;99.90;;;;;;4975717;28;20317;-74
2021/09/23 08:27:06;;;;;;;11.10;8.07;;;12.80;99.90;;;;;;4975544;28;20692;-74
2021/09/23 08:29:33;;;;;;;11.32;7.10;;;12.80;99.90;;;;;;4975642;28;20210;-74
2021/09/23 08:32:01;;;;;;;9.52;7.38;;;12.90;99.90;;;;;;4975302;28;20206;-75
2021/09/23 08:34:28;;;;;;;10.27;7.88;;;13.10;99.90;;;;;;4975777;28;20329;-74
2021/09/23 08:36:55;;;;;;;10.63;6.60;;;13.10;99.90;;;;;;4975812;28;20623;-75
2021/09/23 08:39:21;;;;;;;9.65;6.35;;;13.20;99.90;;;;;;4975776;28;20297;-75
2021/09/23 08:41:49;;;;;;;10.57;7.50;;;13.40;99.90;;;;;;4975573;28;20317;-75
2021/09/23 08:44:16;;;;;;;10.65;8.30;;;13.60;99.90;;;;;;4975470;28;20226;-75
2021/09/23 08:46:43;;;;;;;11.50;7.63;;;13.60;99.90;;;;;;4975451;28;20312;-75
2021/09/23 08:49:11;;;;;;;12.90;7.82;;;13.60;99.90;;;;;;4975416;28;20202;-75
2021/09/23 08:51:38;;;;;;;11.80;8.13;;;13.70;99.90;;;;;;4975179;28;20217;-74
2021/09/23 08:54:06;;;;;;;12.43;7.65;;;13.70;99.90;;;;;;4975434;28;20239;-74
2021/09/23 08:56:33;;;;;;;9.77;7.38;;;13.80;99.90;;;;;;4975413;28;20237;-74
2021/09/23 08:59:00;;;;;;;9.95;6.18;;;13.90;99.90;;;;;;4975534;28;20300;-74
2021/09/23 09:01:32;;;;;;;10.43;6.80;;;13.90;99.90;;;;;;4975582;28;20210;-74
2021/09/23 09:04:00;;;;;;;9.32;7.55;;;13.90;99.90;;;;;;4975433;28;20799;-74
2021/09/23 09:06:29;;;;;;;9.75;7.38;;;14.00;99.90;;;;;;4975667;28;20210;-74
2021/09/23 09:08:56;;;;;;;9.05;7.10;;;14.00;99.90;;;;;;4975462;28;20210;-75
2021/09/23 09:11:23;;;;;;;8.35;6.50;;;14.10;99.90;;;;;;4975688;28;20210;-75
2021/09/23 09:13:53;;;;;;;11.27;7.68;;;14.20;99.90;;;;;;4976213;28;20226;-75
2021/09/23 09:16:24;;;;;;;11.73;8.65;;;14.30;99.90;;;;;;4975977;28;20212;-75
2021/09/23 09:18:53;;;;;;;9.73;7.07;;;14.30;99.90;;;;;;4976508;28;20665;-75
2021/09/23 09:21:23;;;;;;;10.18;7.32;;;14.50;99.90;;;;;;4976416;28;20211;-75
2021/09/23 09:23:56;;;;;;;10.18;7.20;;;14.60;99.90;;;;;;4976352;28;20318;-75
2021/09/23 09:26:29;;;;;;;10.32;7.22;;;14.70;99.90;;;;;;4975907;28;20197;-75
2021/09/23 09:28:58;;;;;;;9.75;6.05;;;14.80;99.90;;;;;;4976142;28;20247;-74
2021/09/23 09:31:26;;;;;;;7.97;6.57;;;14.80;99.90;;;;;;4975803;28;20574;-75
2021/09/23 09:33:55;;;;;;;10.20;5.72;;;15.00;99.90;;;;;;4975589;28;20243;-75
2021/09/23 09:36:31;;;;;;;8.13;6.15;;;15.10;99.90;;;;;;4976171;28;20294;-74
2021/09/23 09:39:01;;;;;;;7.90;5.53;;;15.10;99.90;;;;;;4975353;28;20212;-75
2021/09/23 09:41:30;;;;;;;6.30;4.82;;;15.20;99.90;;;;;;4975499;28;20296;-75
2021/09/23 09:43:58;;;;;;;9.50;5.40;;;15.30;99.90;;;;;;4975735;28;20232;-75
2021/09/23 09:46:27;;;;;;;6.80;4.47;;;15.40;99.90;;;;;;4975350;28;20215;-74
2021/09/23 09:48:54;;;;;;;8.98;5.05;;;15.50;99.90;;;;;;4975548;28;20560;-75
2021/09/23 09:51:34;;;;;;;6.72;5.05;;;15.60;99.90;;;;;;4979255;28;20220;-74
2021/09/23 09:54:04;;;;;;;8.60;4.72;;;15.90;99.90;;;;;;4978631;28;20312;-74
2021/09/23 09:56:31;;;;;;;6.15;3.80;;;16.20;99.90;;;;;;4979127;28;20297;-74
2021/09/23 09:59:05;;;;;;;4.65;4.00;;;16.50;99.90;;;;;;4978797;28;20297;-75
2021/09/23 10:01:32;;;;;;;5.82;4.15;;;16.90;99.90;;;;;;4978911;28;20323;-75
2021/09/23 10:04:00;;;;;;;5.23;3.90;;;17.40;99.90;;;;;;4980788;28;20256;-75
2021/09/23 10:06:28;;;;;;;4.80;3.30;;;18.30;99.90;;;;;;4980866;28;20485;-75
2021/09/23 10:08:56;;;;;;;2.63;2.43;;;19.30;99.90;;;;;;4978719;28;20495;-75
2021/09/23 10:11:26;;;;;;;2.50;2.30;;;20.60;99.90;;;;;;4978649;28;20445;-75
2021/09/23 10:13:54;;;;;;;2.47;2.27;;;21.40;99.00;;;;;;4978872;28;20832;-75
2021/09/23 10:16:21;;;;;;;2.30;2.20;;;21.50;96.60;;;;;;4978920;28;20453;-74
2021/09/23 10:18:48;;;;;;;1.97;1.87;;;21.60;95.30;;;;;;4978766;28;20437;-75
2021/09/23 10:21:16;;;;;;;2.40;2.10;;;21.50;93.60;;;;;;4978277;28;20480;-74
2021/09/23 10:23:43;;;;;;;2.50;2.23;;;21.30;93.50;;;;;;4978558;28;20476;-75
2021/09/23 10:26:14;;;;;;;2.87;1.90;;;21.10;94.00;;;;;;4978578;28;20556;-75
2021/09/23 10:28:46;;;;;;;2.60;2.40;;;21.30;95.80;;;;;;4978385;28;20579;-75
2021/09/23 10:31:18;;;;;;;2.60;2.33;;;21.40;95.40;;;;;;4978583;28;20463;-75
2021/09/23 10:33:45;;;;;;;2.97;2.57;;;21.30;95.10;;;;;;4978515;28;20504;-75
2021/09/23 10:36:13;;;;;;;2.47;2.27;;;21.20;95.30;;;;;;4978340;28;20536;-74
2021/09/23 10:38:41;;;;;;;2.53;2.33;;;21.00;95.70;;;;;;4979026;28;20445;-74
2021/09/23 10:41:09;;;;;;;2.60;2.40;;;21.00;96.20;;;;;;4978191;28;20954;-76
2021/09/23 10:43:37;;;;;;;2.60;2.40;;;21.10;94.70;;;;;;4978499;28;20891;-75
2021/09/23 10:46:06;;;;;;;2.87;2.10;;;21.10;96.30;;;;;;4978211;28;20519;-75
2021/09/23 10:48:35;;;;;;;2.40;2.20;;;20.90;95.50;;;;;;4977914;28;20901;-75
2021/09/23 10:51:03;;;;;;;2.10;1.90;;;21.10;94.30;;;;;;4978417;28;20449;-76
2021/09/23 10:53:33;;;;;;;3.07;2.03;;;21.90;92.80;;;;;;4978568;28;20557;-75
2021/09/23 10:56:03;;;;;;;2.60;2.40;;;22.70;92.70;;;;;;4978498;28;20926;-75
2021/09/23 10:58:31;;;;;;;2.10;1.90;;;24.10;92.10;;;;;;4978192;28;20541;-75
2021/09/23 11:00:59;;;;;;;2.20;2.00;;;25.90;87.70;;;;;;4977250;28;20538;-77
2021/09/23 11:03:32;;;;;;;2.20;2.10;;;27.50;77.20;;;;;;4979893;28;20441;-75
2021/09/23 11:06:07;;;;;;;2.93;2.03;;;28.60;65.30;;;;;;4980393;28;20804;-76
2021/09/23 11:08:40;;;;;;;2.27;2.07;;;29.50;60.50;;;;;;4979926;28;21009;-76
2021/09/23 11:11:08;;;;;;;2.20;2.00;;;30.90;57.60;;;;;;4979332;28;20606;-75
2021/09/23 11:13:38;;;;;;;1.93;1.83;;;31.30;53.50;;;;;;4978388;28;20469;-76
2021/09/23 11:16:07;;;;;;;1.90;1.80;;;31.70;51.30;;;;;;4978678;28;20457;-75
2021/09/23 11:18:37;;;;;;;1.60;1.50;;;32.40;51.20;;;;;;4977882;28;20533;-75
2021/09/23 11:21:06;;;;;;;1.73;1.63;;;32.50;47.20;;;;;;4977739;28;20538;-75
2021/09/23 11:23:34;;;;;;;1.67;1.57;;;32.80;48.20;;;;;;4978010;28;20491;-75
2021/09/23 11:26:02;;;;;;;1.93;1.77;;;32.80;45.90;;;;;;4977860;28;20456;-75
2021/09/23 11:28:30;;;;;;;2.30;1.60;;;32.80;45.30;;;;;;4977554;28;20442;-75
2021/09/23 11:30:58;;;;;;;1.93;1.83;;;32.40;45.60;;;;;;4977412;28;20962;-75
2021/09/23 11:33:25;;;;;;;2.23;2.03;;;32.20;47.20;;;;;;4977409;28;20548;-75
2021/09/23 11:35:54;;;;;;;2.17;2.07;;;31.50;46.60;;;;;;4979998;28;20449;-75
2021/09/23 11:38:22;;;;;;;2.20;2.10;;;29.40;48.10;;;;;;4977831;28;20493;-75
2021/09/23 11:40:51;;;;;;;1.77;1.67;;;28.90;51.70;;;;;;4977912;28;20450;-75
2021/09/23 11:43:21;;;;;;;2.37;2.17;;;28.80;53.90;;;;;;4979427;28;20537;-75
2021/09/23 11:45:51;;;;;;;2.53;2.27;;;29.30;50.80;;;;;;4979255;28;20440;-75
2021/09/23 11:48:24;;;;;;;1.90;1.80;;;29.50;49.60;;;;;;4978853;28;21021;-76
2021/09/23 11:50:56;;;;;;;1.70;1.60;;;29.10;49.30;;;;;;4979439;28;20449;-75
2021/09/23 11:53:26;;;;;;;1.77;1.67;;;30.20;50.80;;;;;;4977258;28;20470;-75
2021/09/23 11:55:59;;;;;;;2.53;2.00;;;31.30;49.30;;;;;;4978247;28;20552;-76
2021/09/23 11:58:26;;;;;;;2.30;2.10;;;31.10;46.40;;;;;;4978460;28;20481;-76
2021/09/23 12:00:54;;;;;;;1.80;1.70;;;30.80;47.90;;;;;;4979371;28;20455;-75
2021/09/23 12:03:22;;;;;;;1.60;1.50;;;30.30;46.60;;;;;;4979010;28;20531;-75
2021/09/23 12:05:50;;;;;;;2.00;1.90;;;29.50;46.20;;;;;;4977293;28;20480;-75
2021/09/23 12:08:22;;;;;;;2.37;2.17;;;28.70;48.90;;;;;;4976782;28;20488;-75
2021/09/23 12:10:56;;;;;;;2.40;2.20;;;27.90;50.90;;;;;;4976813;28;20529;-75
2021/09/23 12:13:32;;;;;;;3.67;2.73;;;27.30;50.80;;;;;;4976120;28;20535;-75
2021/09/23 12:16:00;;;;;;;2.30;2.00;;;26.70;52.10;;;;;;4977781;28;20496;-75
2021/09/23 12:18:28;;;;;;;2.37;2.07;;;26.20;53.30;;;;;;4977772;28;20572;-75
2021/09/23 12:20:58;;;;;;;2.37;2.17;;;25.70;55.30;;;;;;4977900;28;20456;-75
2021/09/23 12:23:32;;;;;;;2.20;2.00;;;25.20;55.10;;;;;;4978295;28;20849;-74
2021/09/23 12:26:20;;;;;;;8.23;2.20;;;24.90;54.90;;;;;;4977911;28;20444;-75
2021/09/23 12:28:59;;;;;;;1.80;1.70;;;24.70;57.60;;;;;;4977256;28;20441;-74
2021/09/23 12:31:32;;;;;;;2.40;2.20;;;24.30;55.00;;;;;;4976415;28;20456;-76
2021/09/23 12:34:02;;;;;;;1.97;1.47;;;24.10;57.90;;;;;;4976566;28;20480;-74
2021/09/23 12:36:32;;;;;;;2.20;2.00;;;24.00;57.20;;;;;;4976692;28;20452;-74
2021/09/23 12:39:12;;;;;;;2.10;1.90;;;24.00;57.70;;;;;;4976426;28;20484;-75
2021/09/23 12:41:40;;;;;;;4.50;2.23;;;23.90;58.70;;;;;;4976190;28;20950;-75
2021/09/23 12:44:08;;;;;;;2.13;1.93;;;23.90;55.20;;;;;;4976231;28;20481;-75
2021/09/23 12:46:36;;;;;;;2.23;2.07;;;23.90;54.50;;;;;;4977129;28;20458;-75
2021/09/23 12:49:13;;;;;;;1.87;1.73;;;23.80;54.50;;;;;;4976936;28;20536;-75